Time;durP1;ratioP1;P1;durP2;ratioP2;P2;SDS_P1;SDS_P2;PMS_P1;PMS_P2;Temp;Humidity;BMP_temperature;BMP_pressure;BME280_temperature;BME280_humidity;BME280_pressure;Samples;Min_cycle;Max_cycle;Signal;HPM_P1;HPM_P2
2021/11/05 00:00:51;;;;;;;10.50;7.20;;;8.50;99.90;;;;;;5052005;28;20029;-68
2021/11/05 00:03:17;;;;;;;15.27;7.60;;;8.50;99.90;;;;;;5050521;28;20029;-67
2021/11/05 00:05:42;;;;;;;14.27;8.70;;;8.50;99.90;;;;;;5051641;28;20379;-67
2021/11/05 00:08:08;;;;;;;10.18;7.07;;;8.50;99.90;;;;;;5051467;28;20033;-67
2021/11/05 00:10:40;;;;;;;12.13;7.72;;;8.60;99.90;;;;;;5049826;28;20028;-67
2021/11/05 00:13:07;;;;;;;8.73;6.65;;;8.50;99.90;;;;;;5052026;28;20040;-68
2021/11/05 00:15:33;;;;;;;9.55;7.68;;;8.50;99.90;;;;;;5051505;28;20039;-68
2021/11/05 00:17:59;;;;;;;11.23;7.75;;;8.50;99.90;;;;;;5050277;28;20033;-68
2021/11/05 00:20:25;;;;;;;9.10;7.10;;;8.60;99.90;;;;;;5051065;28;20120;-67
2021/11/05 00:22:51;;;;;;;9.35;6.88;;;8.40;99.90;;;;;;5049711;28;20079;-67
2021/11/05 00:25:17;;;;;;;13.30;8.23;;;8.50;99.90;;;;;;5050006;28;20433;-68
2021/11/05 00:27:43;;;;;;;8.68;6.50;;;8.50;99.90;;;;;;5049066;28;20513;-68
2021/11/05 00:30:11;;;;;;;10.52;7.35;;;8.40;99.90;;;;;;5051431;28;20024;-67
2021/11/05 00:32:38;;;;;;;11.38;7.53;;;8.40;99.90;;;;;;5049613;28;20031;-67
2021/11/05 00:35:04;;;;;;;10.68;7.32;;;8.40;99.90;;;;;;5049883;28;20374;-68
2021/11/05 00:37:30;;;;;;;11.82;7.30;;;8.40;99.90;;;;;;5050469;28;20037;-68
2021/11/05 00:39:55;;;;;;;10.48;7.53;;;8.30;99.90;;;;;;5049954;28;20106;-67
2021/11/05 00:42:21;;;;;;;10.02;7.78;;;8.30;99.90;;;;;;5051011;28;20047;-67
2021/11/05 00:44:47;;;;;;;9.13;7.00;;;8.30;99.90;;;;;;5050630;28;20041;-68
2021/11/05 00:47:15;;;;;;;12.05;8.57;;;8.30;99.90;;;;;;5050996;28;20057;-67
2021/11/05 00:49:41;;;;;;;10.70;7.97;;;8.40;99.90;;;;;;5050557;28;20036;-68
2021/11/05 00:52:06;;;;;;;8.80;6.95;;;8.40;99.90;;;;;;5050755;28;20037;-68
2021/11/05 00:54:32;;;;;;;14.13;7.10;;;8.40;99.90;;;;;;5050475;28;20166;-68
2021/11/05 00:56:58;;;;;;;9.63;7.82;;;8.40;99.90;;;;;;5050902;28;20047;-67
2021/11/05 00:59:24;;;;;;;11.98;7.40;;;8.30;99.90;;;;;;5050382;28;20068;-67
2021/11/05 01:01:50;;;;;;;12.02;7.78;;;8.30;99.90;;;;;;5048761;28;20028;-68
2021/11/05 01:04:15;;;;;;;10.35;6.93;;;8.30;99.90;;;;;;5049266;28;20090;-69
2021/11/05 01:06:41;;;;;;;9.10;7.03;;;8.40;99.90;;;;;;5049648;28;20156;-67
2021/11/05 01:09:06;;;;;;;9.85;7.45;;;8.40;99.90;;;;;;5050495;28;20060;-67
2021/11/05 01:11:32;;;;;;;12.20;7.65;;;8.40;99.90;;;;;;5049990;28;20457;-66
2021/11/05 01:13:58;;;;;;;10.65;7.53;;;8.40;99.90;;;;;;5050822;28;20032;-66
2021/11/05 01:16:23;;;;;;;9.18;7.60;;;8.40;99.90;;;;;;5051326;28;20032;-68
2021/11/05 01:18:49;;;;;;;8.50;6.53;;;8.40;99.90;;;;;;5051081;28;20467;-66
2021/11/05 01:21:15;;;;;;;9.23;6.93;;;8.40;99.90;;;;;;5049114;28;20029;-67
2021/11/05 01:23:41;;;;;;;11.90;6.78;;;8.40;99.90;;;;;;5048275;28;20025;-66
2021/11/05 01:26:07;;;;;;;10.75;7.80;;;8.40;99.90;;;;;;5049911;28;20032;-66
2021/11/05 01:28:32;;;;;;;13.48;7.50;;;8.40;99.90;;;;;;5049252;28;20136;-67
2021/11/05 01:30:58;;;;;;;8.60;7.40;;;8.40;99.90;;;;;;5048571;28;20024;-67
2021/11/05 01:33:24;;;;;;;9.95;7.47;;;8.40;99.90;;;;;;5049670;28;20048;-67
2021/11/05 01:35:51;;;;;;;9.55;7.28;;;8.40;99.90;;;;;;5049678;28;20490;-67
2021/11/05 01:38:17;;;;;;;9.20;6.88;;;8.40;99.90;;;;;;5050000;28;20029;-68
2021/11/05 01:40:43;;;;;;;10.75;7.30;;;8.40;99.90;;;;;;5049470;28;20035;-67
2021/11/05 01:43:10;;;;;;;11.05;7.03;;;8.40;99.90;;;;;;5049903;28;20026;-67
2021/11/05 01:45:37;;;;;;;13.43;7.90;;;8.40;99.90;;;;;;5053502;28;20075;-68
2021/11/05 01:48:03;;;;;;;10.57;7.00;;;8.40;99.90;;;;;;5053905;28;20453;-67
2021/11/05 01:50:29;;;;;;;10.40;7.05;;;8.40;99.90;;;;;;5052370;28;20033;-67
2021/11/05 01:52:56;;;;;;;10.80;6.88;;;8.40;99.90;;;;;;5053996;28;20025;-71
2021/11/05 01:55:22;;;;;;;9.10;6.65;;;8.40;99.90;;;;;;5054129;28;20029;-67
2021/11/05 01:57:47;;;;;;;9.32;6.50;;;8.40;99.90;;;;;;5052390;28;20112;-67
2021/11/05 02:00:20;;;;;;;8.57;6.70;;;8.50;99.90;;;;;;5054486;28;20332;-68
2021/11/05 02:02:46;;;;;;;11.48;6.97;;;8.50;99.90;;;;;;5053780;28;20197;-68
2021/11/05 02:05:15;;;;;;;9.50;6.40;;;8.50;99.90;;;;;;5054167;28;20052;-68
2021/11/05 02:07:45;;;;;;;11.07;6.82;;;8.50;99.90;;;;;;5053521;28;20040;-67
2021/11/05 02:10:12;;;;;;;9.85;6.68;;;8.50;99.90;;;;;;5053838;28;20420;-66
2021/11/05 02:12:38;;;;;;;10.55;6.93;;;8.60;99.90;;;;;;5051957;28;20032;-67
2021/11/05 02:15:06;;;;;;;9.77;5.88;;;8.60;99.90;;;;;;5054079;28;20028;-66
2021/11/05 02:17:32;;;;;;;10.73;6.90;;;8.60;99.90;;;;;;5053229;28;20051;-67
2021/11/05 02:19:59;;;;;;;10.00;6.35;;;8.60;99.90;;;;;;5052574;28;20025;-68
2021/11/05 02:22:25;;;;;;;10.55;6.95;;;8.60;99.90;;;;;;5053596;28;20021;-67
2021/11/05 02:24:51;;;;;;;8.68;7.22;;;8.60;99.90;;;;;;5053290;28;20032;-68
2021/11/05 02:27:17;;;;;;;8.95;6.35;;;8.60;99.90;;;;;;5052302;28;20033;-69
2021/11/05 02:29:43;;;;;;;10.18;7.15;;;8.60;99.90;;;;;;5052608;28;20143;-66
2021/11/05 02:32:09;;;;;;;9.38;6.65;;;8.60;99.90;;;;;;5052089;28;20078;-69
2021/11/05 02:34:35;;;;;;;7.88;6.55;;;8.60;99.90;;;;;;5052893;28;20054;-68
2021/11/05 02:37:03;;;;;;;9.90;7.20;;;8.60;99.90;;;;;;5053684;28;20091;-69
2021/11/05 02:39:30;;;;;;;12.00;7.93;;;8.60;99.90;;;;;;5051499;28;20029;-67
2021/11/05 02:41:56;;;;;;;9.00;7.30;;;8.60;99.90;;;;;;5053337;28;20044;-68
2021/11/05 02:44:22;;;;;;;9.00;6.72;;;8.70;99.90;;;;;;5053284;28;20466;-71
2021/11/05 02:46:49;;;;;;;9.32;6.95;;;8.60;99.90;;;;;;5051180;28;20036;-68
2021/11/05 02:49:16;;;;;;;11.88;6.50;;;8.60;99.90;;;;;;5053287;28;20036;-68
2021/11/05 02:51:44;;;;;;;9.93;6.90;;;8.60;99.90;;;;;;5052498;28;20048;-67
2021/11/05 02:54:09;;;;;;;10.65;7.13;;;8.60;99.90;;;;;;5053244;28;20040;-67
2021/11/05 02:56:35;;;;;;;9.80;6.63;;;8.60;99.90;;;;;;5049736;28;20036;-67
2021/11/05 02:59:01;;;;;;;17.65;8.15;;;8.50;99.90;;;;;;5051344;28;20033;-67
2021/11/05 03:01:27;;;;;;;10.57;7.35;;;8.60;99.90;;;;;;5052371;28;20074;-68
2021/11/05 03:03:57;;;;;;;10.05;7.28;;;8.60;99.90;;;;;;5052457;28;20028;-67
2021/11/05 03:06:23;;;;;;;9.50;7.35;;;8.60;99.90;;;;;;5052856;28;20025;-67
2021/11/05 03:08:49;;;;;;;9.70;6.88;;;8.50;99.90;;;;;;5051830;28;20332;-68
2021/11/05 03:11:14;;;;;;;12.40;7.50;;;8.50;99.90;;;;;;5052397;28;20056;-68
2021/11/05 03:13:42;;;;;;;12.55;8.13;;;8.50;99.90;;;;;;5051987;28;20107;-67
2021/11/05 03:16:08;;;;;;;10.90;7.57;;;8.60;99.90;;;;;;5052864;28;20106;-66
2021/11/05 03:18:38;;;;;;;9.50;6.47;;;8.50;99.90;;;;;;5052020;28;20064;-67
2021/11/05 03:21:04;;;;;;;9.40;7.13;;;8.50;99.90;;;;;;5052814;28;20028;-68
2021/11/05 03:23:30;;;;;;;11.82;6.70;;;8.50;99.90;;;;;;5050432;28;20025;-69
2021/11/05 03:25:55;;;;;;;11.02;6.72;;;8.50;99.90;;;;;;5052292;28;20366;-67
2021/11/05 03:28:21;;;;;;;8.20;6.60;;;8.40;99.90;;;;;;5052184;28;20089;-67
2021/11/05 03:30:47;;;;;;;10.40;7.07;;;8.50;99.90;;;;;;5051619;28;20115;-69
2021/11/05 03:33:13;;;;;;;8.32;6.32;;;8.40;99.90;;;;;;5052444;28;20033;-67
2021/11/05 03:35:38;;;;;;;9.60;7.28;;;8.50;99.90;;;;;;5051843;28;20119;-68
2021/11/05 03:38:04;;;;;;;11.43;7.97;;;8.30;99.90;;;;;;5052265;28;20478;-67
2021/11/05 03:40:30;;;;;;;10.65;7.55;;;8.30;99.90;;;;;;5050256;28;20056;-67
2021/11/05 03:42:56;;;;;;;8.93;6.85;;;8.30;99.90;;;;;;5050711;28;20428;-67
2021/11/05 03:45:21;;;;;;;10.23;7.53;;;8.30;99.90;;;;;;5052008;28;20025;-68
2021/11/05 03:47:47;;;;;;;13.38;6.82;;;8.30;99.90;;;;;;5051724;28;20362;-67
2021/11/05 03:50:13;;;;;;;9.63;7.65;;;8.30;99.90;;;;;;5051105;28;20100;-68
2021/11/05 03:52:39;;;;;;;10.15;7.07;;;8.40;99.90;;;;;;5043519;28;20459;-68
2021/11/05 03:55:06;;;;;;;9.05;6.78;;;8.40;99.90;;;;;;5032072;28;20034;-68
2021/11/05 03:57:32;;;;;;;10.05;6.55;;;8.30;99.90;;;;;;5031508;28;20040;-68
2021/11/05 03:59:58;;;;;;;11.15;6.90;;;8.30;99.90;;;;;;5031266;28;20383;-67
2021/11/05 04:02:24;;;;;;;9.93;7.18;;;8.30;99.90;;;;;;5031219;28;20018;-67
2021/11/05 04:04:51;;;;;;;13.10;6.97;;;8.20;99.90;;;;;;5030959;28;20036;-67
2021/11/05 04:07:17;;;;;;;10.15;6.80;;;8.20;99.90;;;;;;5031194;28;20037;-68
2021/11/05 04:09:43;;;;;;;8.57;6.32;;;8.10;99.90;;;;;;5030811;28;20029;-67
2021/11/05 04:12:09;;;;;;;13.18;7.47;;;8.20;99.90;;;;;;5031416;28;20108;-67
2021/11/05 04:14:34;;;;;;;13.10;7.63;;;8.10;99.90;;;;;;5031283;28;20037;-68
2021/11/05 04:17:00;;;;;;;10.18;7.40;;;8.10;99.90;;;;;;5030443;28;20116;-68
2021/11/05 04:19:26;;;;;;;12.18;6.93;;;8.10;99.90;;;;;;5030031;28;20124;-77
2021/11/05 04:21:51;;;;;;;14.07;7.28;;;8.10;99.90;;;;;;5031214;28;20128;-68
2021/11/05 04:24:17;;;;;;;9.73;6.07;;;8.10;99.90;;;;;;5031423;28;20033;-68
2021/11/05 04:26:42;;;;;;;8.40;6.63;;;8.20;99.90;;;;;;5030783;28;20033;-68
2021/11/05 04:29:08;;;;;;;9.00;6.43;;;8.10;99.90;;;;;;5031441;28;20545;-67
2021/11/05 04:31:34;;;;;;;11.38;7.53;;;8.00;99.90;;;;;;5030720;28;20466;-68
2021/11/05 04:33:59;;;;;;;11.27;7.55;;;8.00;99.90;;;;;;5031390;28;20485;-67
2021/11/05 04:36:26;;;;;;;11.63;7.45;;;8.00;99.90;;;;;;5031004;28;20022;-68
2021/11/05 04:38:51;;;;;;;15.13;7.80;;;8.00;99.90;;;;;;5031153;28;20060;-67
2021/11/05 04:41:18;;;;;;;14.02;8.10;;;8.00;99.90;;;;;;5041166;28;20037;-68
2021/11/05 04:43:43;;;;;;;12.27;7.70;;;8.00;99.90;;;;;;5050555;28;20033;-68
2021/11/05 04:46:09;;;;;;;13.27;8.52;;;8.00;99.90;;;;;;5050922;28;20028;-67
2021/11/05 04:48:35;;;;;;;11.18;8.45;;;7.90;99.90;;;;;;5050087;28;20076;-68
2021/11/05 04:51:01;;;;;;;13.60;8.80;;;8.00;99.90;;;;;;5051161;28;20025;-68
2021/11/05 04:53:26;;;;;;;12.52;8.10;;;8.00;99.90;;;;;;5050510;28;20094;-69
2021/11/05 04:55:52;;;;;;;14.60;8.75;;;8.10;99.90;;;;;;5050505;28;20540;-66
2021/11/05 04:58:17;;;;;;;12.23;8.73;;;8.00;99.90;;;;;;5049402;28;20090;-68
2021/11/05 05:00:43;;;;;;;11.70;9.25;;;8.00;99.90;;;;;;5050404;28;20021;-68
2021/11/05 05:03:09;;;;;;;12.75;8.50;;;8.10;99.90;;;;;;5050356;28;20115;-67
2021/11/05 05:05:35;;;;;;;13.95;9.02;;;8.10;99.90;;;;;;5049960;28;20113;-67
2021/11/05 05:08:01;;;;;;;12.63;8.48;;;8.00;99.90;;;;;;5049935;28;20041;-67
2021/11/05 05:10:28;;;;;;;14.80;9.25;;;8.00;99.90;;;;;;5049472;28;20029;-68
2021/11/05 05:12:54;;;;;;;14.00;8.90;;;8.00;99.90;;;;;;5050100;28;20052;-66
2021/11/05 05:15:20;;;;;;;12.10;9.30;;;8.00;99.90;;;;;;5051328;28;20033;-67
2021/11/05 05:17:46;;;;;;;13.25;9.05;;;8.10;99.90;;;;;;5049918;28;20584;-67
2021/11/05 05:20:14;;;;;;;12.25;9.00;;;8.10;99.90;;;;;;5050144;28;20536;-66
2021/11/05 05:22:41;;;;;;;15.82;9.48;;;8.10;99.90;;;;;;5047914;28;20049;-67
2021/11/05 05:25:09;;;;;;;15.30;10.10;;;8.10;99.90;;;;;;5050285;28;20386;-68
2021/11/05 05:27:36;;;;;;;14.20;9.25;;;8.10;99.90;;;;;;5049531;28;20544;-66
2021/11/05 05:30:03;;;;;;;12.95;9.00;;;8.10;99.90;;;;;;5048834;28;20040;-67
2021/11/05 05:32:29;;;;;;;14.10;9.27;;;8.10;99.90;;;;;;5049548;28;20032;-67
2021/11/05 05:34:54;;;;;;;17.95;10.35;;;8.30;99.90;;;;;;5050005;28;20107;-67
2021/11/05 05:37:20;;;;;;;12.98;9.75;;;8.30;99.90;;;;;;5049809;28;20029;-66
2021/11/05 05:39:46;;;;;;;17.52;10.95;;;8.30;99.90;;;;;;5048959;28;20041;-66
2021/11/05 05:42:11;;;;;;;14.00;9.52;;;8.30;99.90;;;;;;5049920;28;20412;-67
2021/11/05 05:44:37;;;;;;;13.80;9.98;;;8.20;99.90;;;;;;5048502;28;20455;-67
2021/11/05 05:47:03;;;;;;;15.38;9.05;;;8.20;99.90;;;;;;5047296;28;20112;-68
2021/11/05 05:49:29;;;;;;;17.08;10.57;;;8.10;99.90;;;;;;5048475;28;20091;-67
2021/11/05 05:51:54;;;;;;;13.70;9.93;;;8.10;99.90;;;;;;5049306;28;20021;-67
2021/11/05 05:54:20;;;;;;;16.10;9.85;;;8.10;99.90;;;;;;5048180;28;20443;-66
2021/11/05 05:56:46;;;;;;;14.65;10.07;;;8.10;99.90;;;;;;5047750;28;20037;-66
2021/11/05 05:59:11;;;;;;;16.48;10.40;;;8.10;99.90;;;;;;5048782;28;20406;-67
2021/11/05 06:01:37;;;;;;;19.23;10.23;;;8.10;99.90;;;;;;5047567;28;20467;-67
2021/11/05 06:04:03;;;;;;;15.45;9.63;;;8.10;99.90;;;;;;5048370;28;20513;-68
2021/11/05 06:06:30;;;;;;;21.83;11.00;;;8.00;99.90;;;;;;5048633;28;20029;-68
2021/11/05 06:08:56;;;;;;;15.13;9.68;;;8.00;99.90;;;;;;5049558;28;20509;-66
2021/11/05 06:11:24;;;;;;;18.13;11.25;;;8.00;99.90;;;;;;5049773;28;20388;-66
2021/11/05 06:13:49;;;;;;;16.55;10.68;;;7.90;99.90;;;;;;5047879;28;20127;-67
2021/11/05 06:16:15;;;;;;;14.35;9.20;;;8.00;99.90;;;;;;5049645;28;20453;-67
2021/11/05 06:18:41;;;;;;;14.68;10.52;;;8.00;99.90;;;;;;5048724;28;20029;-67
2021/11/05 06:21:06;;;;;;;21.25;11.13;;;8.00;99.90;;;;;;5049068;28;20021;-67
2021/11/05 06:23:32;;;;;;;16.20;10.77;;;8.00;99.90;;;;;;5047202;28;20228;-67
2021/11/05 06:25:58;;;;;;;17.13;10.80;;;8.00;99.90;;;;;;5049511;28;20083;-67
2021/11/05 06:28:25;;;;;;;16.65;11.52;;;8.00;99.90;;;;;;5049117;28;20126;-67
2021/11/05 06:30:52;;;;;;;17.65;11.02;;;8.00;99.90;;;;;;5051611;28;20121;-67
2021/11/05 06:33:18;;;;;;;15.30;11.13;;;8.00;99.90;;;;;;5052255;28;20369;-66
2021/11/05 06:35:45;;;;;;;18.92;11.93;;;7.90;99.90;;;;;;5052330;28;20028;-67
2021/11/05 06:38:11;;;;;;;19.17;10.77;;;7.90;99.90;;;;;;5051411;28;20393;-69
2021/11/05 06:40:37;;;;;;;21.92;11.07;;;8.00;99.90;;;;;;5051296;28;20029;-68
2021/11/05 06:43:03;;;;;;;18.55;11.48;;;8.00;99.90;;;;;;5052637;28;20115;-69
2021/11/05 06:45:30;;;;;;;20.42;12.00;;;8.20;99.90;;;;;;5052037;28;20435;-68
2021/11/05 06:47:56;;;;;;;20.30;12.25;;;8.30;99.90;;;;;;5052341;28;20036;-67
2021/11/05 06:50:22;;;;;;;19.40;11.20;;;8.30;99.90;;;;;;5052450;28;20450;-70
2021/11/05 06:52:48;;;;;;;22.30;11.57;;;8.30;99.90;;;;;;5052123;28;20324;-67
2021/11/05 06:55:14;;;;;;;21.63;11.73;;;8.30;99.90;;;;;;5050810;28;20029;-69
2021/11/05 06:57:39;;;;;;;15.63;10.43;;;8.30;99.90;;;;;;5033879;28;20040;-68
2021/11/05 07:00:08;;;;;;;16.95;10.77;;;8.30;99.90;;;;;;5052082;28;20036;-67
2021/11/05 07:02:40;;;;;;;18.88;10.73;;;8.30;99.90;;;;;;5051439;28;20041;-67
2021/11/05 07:05:06;;;;;;;16.08;10.63;;;8.40;99.90;;;;;;5052652;28;20032;-67
2021/11/05 07:07:32;;;;;;;15.50;9.77;;;8.30;99.90;;;;;;5050690;28;20033;-67
2021/11/05 07:09:58;;;;;;;17.75;10.77;;;8.30;99.90;;;;;;5052493;28;20029;-67
2021/11/05 07:12:23;;;;;;;17.20;11.57;;;8.20;99.90;;;;;;5052306;28;20068;-68
2021/11/05 07:14:49;;;;;;;17.60;11.25;;;8.30;99.90;;;;;;5050281;28;20025;-70
2021/11/05 07:17:14;;;;;;;15.55;11.10;;;8.40;99.90;;;;;;5052293;28;20052;-68
2021/11/05 07:19:40;;;;;;;15.60;10.18;;;8.40;99.90;;;;;;5049658;28;20055;-67
2021/11/05 07:22:06;;;;;;;17.25;11.50;;;8.40;99.90;;;;;;5050812;28;20068;-68
2021/11/05 07:24:35;;;;;;;19.35;11.98;;;8.40;99.90;;;;;;5051299;28;20082;-68
2021/11/05 07:27:01;;;;;;;17.25;11.25;;;8.40;99.90;;;;;;5050245;28;20116;-70
2021/11/05 07:29:27;;;;;;;20.08;11.25;;;8.50;99.90;;;;;;5051086;28;20398;-70
2021/11/05 07:31:58;;;;;;;19.67;12.00;;;8.50;99.90;;;;;;5050350;28;20025;-69
2021/11/05 07:34:29;;;;;;;18.27;10.97;;;8.50;99.90;;;;;;5050643;28;20029;-70
2021/11/05 07:36:56;;;;;;;19.45;11.65;;;8.50;99.90;;;;;;5050273;28;20029;-68
2021/11/05 07:39:21;;;;;;;19.95;10.85;;;8.50;99.90;;;;;;5050372;28;20029;-68
2021/11/05 07:41:47;;;;;;;18.45;12.45;;;8.50;99.90;;;;;;5050534;28;20086;-69
2021/11/05 07:44:13;;;;;;;20.92;12.55;;;8.50;99.90;;;;;;5051353;28;20025;-70
2021/11/05 07:46:41;;;;;;;15.32;11.13;;;8.50;99.90;;;;;;5051228;28;20025;-69
2021/11/05 07:49:06;;;;;;;18.58;12.20;;;8.50;99.90;;;;;;5051754;28;20135;-70
2021/11/05 07:51:32;;;;;;;19.00;12.63;;;8.50;99.90;;;;;;5049928;28;20112;-70
2021/11/05 07:53:58;;;;;;;20.65;12.50;;;8.50;99.90;;;;;;5051114;28;20426;-70
2021/11/05 07:56:23;;;;;;;22.13;13.52;;;8.70;99.90;;;;;;5047352;28;20542;-68
2021/11/05 07:58:49;;;;;;;20.25;11.57;;;8.60;99.90;;;;;;5038249;28;20387;-68
2021/11/05 08:01:15;;;;;;;20.73;13.00;;;8.70;99.90;;;;;;5047700;28;20094;-68
2021/11/05 08:03:41;;;;;;;19.00;12.07;;;8.70;99.90;;;;;;5042438;28;20056;-64
2021/11/05 08:06:07;;;;;;;20.63;11.68;;;9.50;99.90;;;;;;5049854;28;20028;-63
2021/11/05 08:08:34;;;;;;;20.70;12.35;;;10.00;99.90;;;;;;5039492;28;20029;-65
2021/11/05 08:11:00;;;;;;;22.25;13.73;;;9.80;99.90;;;;;;5048376;28;20107;-68
2021/11/05 08:13:26;;;;;;;20.30;12.98;;;9.70;99.90;;;;;;5050324;28;20536;-75
2021/11/05 08:15:51;;;;;;;20.80;12.68;;;9.40;99.90;;;;;;5040588;28;20030;-68
2021/11/05 08:18:17;;;;;;;19.63;12.80;;;9.20;99.90;;;;;;5031410;28;20033;-68
2021/11/05 08:20:43;;;;;;;21.85;13.15;;;9.20;99.90;;;;;;5030342;28;20053;-68
2021/11/05 08:23:09;;;;;;;26.95;12.75;;;9.20;99.90;;;;;;5034351;28;20125;-67
2021/11/05 08:25:35;;;;;;;22.13;13.65;;;9.20;99.90;;;;;;5031987;28;20037;-68
2021/11/05 08:28:01;;;;;;;23.95;13.30;;;9.20;99.90;;;;;;5028907;28;20194;-68
2021/11/05 08:30:27;;;;;;;24.77;13.88;;;9.30;99.90;;;;;;5029440;28;20060;-68
2021/11/05 08:32:57;;;;;;;25.08;13.57;;;9.30;99.90;;;;;;5030718;28;20067;-69
2021/11/05 08:35:26;;;;;;;20.55;13.48;;;9.40;99.90;;;;;;5037852;28;20021;-70
2021/11/05 08:37:52;;;;;;;20.67;13.07;;;9.30;99.90;;;;;;5053550;28;20032;-69
2021/11/05 08:40:18;;;;;;;21.02;13.55;;;9.20;99.90;;;;;;5061950;28;20024;-67
2021/11/05 08:42:45;;;;;;;28.65;15.30;;;9.20;99.90;;;;;;5056348;28;20339;-68
2021/11/05 08:45:11;;;;;;;26.35;14.57;;;9.30;99.90;;;;;;5053221;28;20138;-72
2021/11/05 08:47:40;;;;;;;25.85;14.88;;;9.30;99.90;;;;;;5065370;28;20500;-69
2021/11/05 08:50:10;;;;;;;25.98;16.08;;;9.30;99.90;;;;;;5050877;28;20533;-69
2021/11/05 08:52:37;;;;;;;22.85;14.40;;;9.30;99.90;;;;;;5063716;28;20047;-68
2021/11/05 08:55:06;;;;;;;24.95;14.77;;;9.40;99.90;;;;;;5049065;28;20035;-69
2021/11/05 08:57:34;;;;;;;24.50;14.63;;;9.40;99.90;;;;;;5061995;28;20166;-69
2021/11/05 09:00:01;;;;;;;22.92;13.68;;;9.20;99.90;;;;;;5054303;28;20031;-68
2021/11/05 09:02:27;;;;;;;23.15;13.88;;;9.20;99.90;;;;;;5059259;28;20125;-68
2021/11/05 09:04:54;;;;;;;29.73;13.43;;;9.20;99.90;;;;;;5045984;28;20036;-69
2021/11/05 09:07:20;;;;;;;24.17;13.85;;;9.30;99.90;;;;;;5042644;28;20021;-69
2021/11/05 09:09:46;;;;;;;25.00;15.40;;;9.50;99.90;;;;;;5060965;28;20525;-69
2021/11/05 09:12:12;;;;;;;24.08;14.20;;;9.50;99.90;;;;;;5064585;28;20016;-67
2021/11/05 09:14:38;;;;;;;21.42;14.00;;;9.60;99.90;;;;;;5052202;28;20209;-68
2021/11/05 09:17:03;;;;;;;23.35;14.75;;;9.60;99.90;;;;;;5046913;28;20025;-67
2021/11/05 09:19:29;;;;;;;20.67;14.02;;;9.70;99.90;;;;;;5048566;28;20048;-67
2021/11/05 09:21:54;;;;;;;22.80;14.27;;;9.70;99.90;;;;;;5049804;28;20025;-67
2021/11/05 09:24:20;;;;;;;19.83;13.10;;;9.80;99.90;;;;;;5049197;28;20075;-68
2021/11/05 09:26:46;;;;;;;23.13;13.13;;;9.80;99.90;;;;;;5048899;28;20375;-70
2021/11/05 09:29:13;;;;;;;23.60;14.88;;;9.80;99.90;;;;;;5049595;28;20468;-69
2021/11/05 09:31:39;;;;;;;24.27;13.93;;;10.00;99.90;;;;;;5048733;28;20028;-71
2021/11/05 09:34:05;;;;;;;23.83;13.75;;;9.90;99.90;;;;;;5049751;28;20025;-70
2021/11/05 09:36:31;;;;;;;24.35;14.50;;;9.80;99.90;;;;;;5047274;28;20033;-70
2021/11/05 09:38:57;;;;;;;22.50;14.00;;;10.00;99.90;;;;;;5050274;28;20028;-68
2021/11/05 09:41:23;;;;;;;21.80;14.43;;;10.00;99.90;;;;;;5047867;28;20048;-67
2021/11/05 09:43:49;;;;;;;27.13;14.95;;;10.00;99.90;;;;;;5047296;28;20021;-69
2021/11/05 09:46:15;;;;;;;24.38;14.57;;;10.00;99.90;;;;;;5046613;28;20138;-68
2021/11/05 09:48:43;;;;;;;22.55;14.05;;;10.00;99.90;;;;;;5047070;28;20086;-68
2021/11/05 09:51:10;;;;;;;19.48;13.68;;;10.00;99.90;;;;;;5031954;28;20040;-68
2021/11/05 09:53:38;;;;;;;23.98;15.05;;;9.90;99.90;;;;;;5049657;28;20099;-67
2021/11/05 09:56:07;;;;;;;23.75;15.27;;;9.90;99.90;;;;;;5050348;28;20029;-67
2021/11/05 09:58:34;;;;;;;21.23;13.75;;;10.00;99.90;;;;;;5046479;28;20056;-69
2021/11/05 10:01:00;;;;;;;26.08;14.57;;;10.10;99.90;;;;;;5048586;28;20407;-69
2021/11/05 10:03:27;;;;;;;22.17;14.30;;;10.10;99.90;;;;;;5048695;28;20055;-67
2021/11/05 10:05:54;;;;;;;23.17;14.75;;;10.10;99.90;;;;;;5052855;28;20414;-66
2021/11/05 10:08:34;;;;;;;27.65;15.30;;;10.00;99.90;;;;;;5053173;28;20059;-69
2021/11/05 10:11:18;;;;;;;23.83;15.77;;;10.10;99.90;;;;;;5054398;28;20033;-68
2021/11/05 10:13:44;;;;;;;23.50;14.90;;;10.30;99.90;;;;;;5052453;28;20124;-67
2021/11/05 10:16:14;;;;;;;21.48;14.23;;;10.30;99.90;;;;;;5054082;28;20100;-68
2021/11/05 10:19:05;;;;;;;23.73;14.50;;;10.40;99.90;;;;;;5052148;28;20025;-69
2021/11/05 10:21:40;;;;;;;24.53;15.17;;;10.50;99.90;;;;;;5051401;28;20031;-67
2021/11/05 10:24:12;;;;;;;23.98;13.95;;;10.70;99.90;;;;;;5050429;28;20282;-69
2021/11/05 10:26:38;;;;;;;24.27;15.23;;;10.80;99.90;;;;;;5044865;28;20530;-66
2021/11/05 10:29:08;;;;;;;22.27;13.40;;;10.70;99.90;;;;;;5052335;28;20130;-69
2021/11/05 10:31:35;;;;;;;21.77;13.23;;;10.70;99.90;;;;;;5053525;28;20069;-65
2021/11/05 10:34:02;;;;;;;23.92;14.43;;;11.10;99.90;;;;;;5069866;28;20017;-67
2021/11/05 10:36:31;;;;;;;25.50;14.20;;;11.80;99.90;;;;;;5058175;28;20020;-68
2021/11/05 10:39:04;;;;;;;24.17;12.65;;;11.50;99.90;;;;;;5066137;28;20132;-69
2021/11/05 10:41:32;;;;;;;19.40;11.55;;;11.30;99.90;;;;;;5062492;28;20039;-70
2021/11/05 10:44:01;;;;;;;21.02;12.43;;;11.30;99.90;;;;;;5051673;28;20017;-69
2021/11/05 10:46:40;;;;;;;16.20;10.98;;;11.30;99.90;;;;;;5056807;28;20025;-71
2021/11/05 10:49:29;;;;;;;15.00;10.50;;;11.00;99.90;;;;;;5053003;28;20265;-69
2021/11/05 10:52:31;;;;;;;18.67;12.10;;;11.00;99.90;;;;;;5051038;28;20043;-68
2021/11/05 10:54:59;;;;;;;18.83;12.00;;;10.70;99.90;;;;;;4993078;28;20036;-71
2021/11/05 10:57:42;;;;;;;23.98;13.27;;;10.80;99.90;;;;;;5044443;28;20037;-70
2021/11/05 11:00:22;;;;;;;22.58;14.30;;;10.60;99.90;;;;;;5051315;28;20407;-69
2021/11/05 11:02:48;;;;;;;24.45;13.80;;;10.60;99.90;;;;;;5045711;28;20034;-69
2021/11/05 11:05:31;;;;;;;23.00;12.85;;;10.70;99.90;;;;;;5045666;28;20021;-68
2021/11/05 11:07:59;;;;;;;22.20;13.68;;;10.80;99.90;;;;;;5050023;28;20037;-68
2021/11/05 11:10:36;;;;;;;22.20;12.80;;;10.80;99.90;;;;;;5049802;28;20021;-68
2021/11/05 11:13:03;;;;;;;19.50;12.52;;;11.10;99.90;;;;;;5050668;28;20016;-68
2021/11/05 11:15:35;;;;;;;19.33;11.82;;;11.20;99.90;;;;;;5050967;28;20017;-67
2021/11/05 11:18:00;;;;;;;18.33;11.45;;;11.40;99.90;;;;;;5049211;28;20025;-67
2021/11/05 11:20:36;;;;;;;19.40;12.32;;;11.60;99.90;;;;;;5050394;28;20447;-70
2021/11/05 11:23:03;;;;;;;20.85;13.40;;;11.80;99.90;;;;;;5049233;28;20113;-68
2021/11/05 11:25:29;;;;;;;18.67;12.70;;;11.90;99.90;;;;;;5049416;28;20092;-72
2021/11/05 11:27:55;;;;;;;22.30;13.50;;;11.90;99.90;;;;;;5053280;28;20071;-68
2021/11/05 11:30:21;;;;;;;16.25;11.60;;;12.00;99.90;;;;;;5050175;28;20025;-67
2021/11/05 11:32:49;;;;;;;18.63;11.70;;;12.20;99.90;;;;;;5050559;28;20052;-69
2021/11/05 11:35:15;;;;;;;16.25;10.68;;;12.20;99.90;;;;;;5051004;28;20471;-68
2021/11/05 11:37:42;;;;;;;16.27;10.43;;;12.20;99.90;;;;;;5034940;28;20060;-68
2021/11/05 11:40:09;;;;;;;19.70;12.60;;;11.90;99.90;;;;;;5030647;28;20468;-69
2021/11/05 11:42:36;;;;;;;16.98;10.82;;;12.10;99.90;;;;;;5031936;28;20094;-66
2021/11/05 11:45:06;;;;;;;15.20;10.88;;;12.50;99.90;;;;;;5030842;28;20026;-66
2021/11/05 11:47:42;;;;;;;15.25;11.00;;;12.80;99.90;;;;;;5036832;28;20029;-67
2021/11/05 11:50:20;;;;;;;15.05;9.98;;;12.90;99.90;;;;;;5050165;28;20029;-68
2021/11/05 11:52:57;;;;;;;18.70;11.73;;;13.00;99.90;;;;;;5043838;28;20025;-68
2021/11/05 11:55:23;;;;;;;16.77;9.48;;;13.10;99.90;;;;;;5050871;28;20171;-68
2021/11/05 11:57:48;;;;;;;15.27;9.30;;;13.60;99.90;;;;;;5050152;28;20490;-68
2021/11/05 12:00:23;;;;;;;13.07;8.85;;;14.50;99.90;;;;;;5034183;28;20028;-68
2021/11/05 12:03:00;;;;;;;12.43;8.18;;;15.60;99.90;;;;;;5051929;28;20081;-68
2021/11/05 12:05:32;;;;;;;13.82;10.65;;;16.40;98.90;;;;;;5051567;28;20234;-68
2021/11/05 12:08:36;;;;;;;;;;;16.30;98.30;;;;;;5052158;28;20029;-68
2021/11/05 12:11:07;;;;;;;11.68;7.50;;;16.70;96.80;;;;;;4993701;28;19913;-62
2021/11/05 12:13:33;;;;;;;10.27;7.18;;;17.20;98.10;;;;;;5009655;28;20030;-59
2021/11/05 12:16:15;;;;;;;18.02;8.23;;;17.30;99.90;;;;;;5008943;28;20332;-67
2021/11/05 12:19:06;;;;;;;;;;;16.70;96.30;;;;;;5009815;28;20065;-67
2021/11/05 12:21:35;;;;;;;13.93;8.38;;;16.60;96.40;;;;;;5010225;28;19981;-67
2021/11/05 12:24:16;;;;;;;15.23;9.63;;;16.10;95.90;;;;;;4993768;28;20095;-67
2021/11/05 12:27:04;;;;;;;10.00;6.97;;;15.70;97.00;;;;;;5009577;28;20042;-68
2021/11/05 12:29:33;;;;;;;10.07;7.40;;;15.40;96.00;;;;;;5009958;28;20116;-67
2021/11/05 12:32:17;;;;;;;10.30;7.63;;;15.00;96.40;;;;;;5008325;28;20030;-66
2021/11/05 12:34:47;;;;;;;10.02;7.60;;;15.10;96.60;;;;;;5009068;28;20096;-68
2021/11/05 12:37:28;;;;;;;11.48;8.70;;;15.00;97.30;;;;;;5009465;28;20037;-67
2021/11/05 12:39:54;;;;;;;13.02;8.63;;;14.60;97.80;;;;;;5008100;28;20061;-67
2021/11/05 12:42:20;;;;;;;12.20;8.77;;;14.40;97.80;;;;;;5018716;28;20029;-67
2021/11/05 12:44:52;;;;;;;12.52;9.13;;;14.20;97.80;;;;;;5030432;28;20387;-67